createdAt,value
2019-05-18T00:00:20.237Z,52.75
2019-05-18T00:02:48.027Z,52.76
2019-05-18T00:05:15.904Z,52.82
2019-05-18T00:07:43.840Z,52.80
2019-05-18T00:10:11.478Z,52.82
2019-05-18T00:12:39.055Z,52.83
2019-05-18T00:15:06.847Z,52.83
2019-05-18T00:17:34.751Z,52.88
2019-05-18T00:20:02.412Z,52.90
2019-05-18T00:22:29.915Z,52.92
2019-05-18T00:24:57.749Z,52.90
2019-05-18T00:27:25.492Z,52.93
2019-05-18T00:29:53.370Z,52.97
2019-05-18T00:32:21.265Z,52.93
2019-05-18T00:34:48.931Z,52.94
2019-05-18T00:37:16.702Z,52.97
2019-05-18T00:39:44.433Z,52.97
2019-05-18T00:42:12.175Z,52.98
2019-05-18T00:44:40.008Z,53.00
2019-05-18T00:47:07.780Z,53.03
2019-05-18T00:49:35.546Z,53.04
2019-05-18T00:52:03.115Z,53.03
2019-05-18T00:54:30.985Z,53.06
2019-05-18T00:56:58.806Z,53.09
2019-05-18T00:59:26.498Z,53.07
2019-05-18T01:01:54.298Z,53.09
2019-05-18T01:04:22.066Z,53.11
2019-05-18T01:06:49.936Z,53.11
2019-05-18T01:09:17.498Z,53.13
2019-05-18T01:11:45.249Z,53.21
2019-05-18T01:14:12.997Z,53.16
2019-05-18T01:16:40.708Z,53.21
2019-05-18T01:19:08.385Z,53.22
2019-05-18T01:21:36.142Z,53.27
2019-05-18T01:24:04.017Z,53.22
2019-05-18T01:26:31.787Z,53.24
2019-05-18T01:29:01.705Z,53.24
2019-05-18T01:31:29.343Z,53.26
2019-05-18T01:33:56.973Z,53.32
2019-05-18T01:36:24.811Z,53.33
2019-05-18T01:38:52.282Z,53.35
2019-05-18T01:41:19.716Z,53.36
2019-05-18T01:43:47.173Z,53.33
2019-05-18T01:46:14.968Z,53.38
2019-05-18T01:48:42.448Z,53.35
2019-05-18T01:51:10.181Z,53.39
2019-05-18T01:53:37.970Z,53.39
2019-05-18T01:56:05.414Z,53.40
2019-05-18T01:58:32.880Z,53.42
2019-05-18T02:01:00.323Z,53.43
2019-05-18T02:03:28.098Z,53.41
2019-05-18T02:05:55.900Z,53.39
2019-05-18T02:08:23.408Z,53.41
2019-05-18T02:10:50.861Z,53.43
2019-05-18T02:13:18.336Z,53.47
2019-05-18T02:15:45.812Z,53.47
2019-05-18T02:18:28.007Z,53.47
2019-05-18T02:20:42.665Z,53.45
2019-05-18T02:23:10.490Z,53.44
2019-05-18T02:25:38.126Z,53.48
2019-05-18T02:28:06.284Z,53.49
2019-05-18T02:30:33.771Z,53.52
2019-05-18T02:33:01.671Z,53.52
2019-05-18T02:35:29.163Z,53.55
2019-05-18T02:38:13.525Z,53.56
2019-05-18T02:40:41.192Z,53.58
2019-05-18T02:43:08.918Z,53.55
2019-05-18T02:45:36.585Z,53.55
2019-05-18T02:48:04.354Z,53.56
2019-05-18T02:50:31.772Z,53.59
2019-05-18T02:52:59.256Z,53.61
2019-05-18T02:55:26.721Z,53.59
2019-05-18T02:57:54.263Z,53.63
2019-05-18T03:00:21.720Z,53.62
2019-05-18T03:02:49.163Z,53.65
2019-05-18T03:05:17.008Z,53.70
2019-05-18T03:07:44.771Z,53.71
2019-05-18T03:10:12.558Z,53.74
2019-05-18T03:12:40.106Z,53.74
2019-05-18T03:15:08.097Z,53.75
2019-05-18T03:17:36.025Z,53.80
2019-05-18T03:20:03.930Z,53.80
2019-05-18T03:22:31.700Z,53.82
2019-05-18T03:24:59.362Z,53.79
2019-05-18T03:27:27.134Z,53.78
2019-05-18T03:29:54.806Z,53.85
2019-05-18T03:32:22.275Z,53.86
2019-05-18T03:34:49.720Z,53.84
2019-05-18T03:37:17.203Z,53.85
2019-05-18T03:39:44.676Z,53.86
2019-05-18T03:42:12.120Z,53.86
2019-05-18T03:44:39.591Z,53.88
2019-05-18T03:47:07.075Z,53.85
2019-05-18T03:49:34.493Z,53.87
2019-05-18T03:52:01.972Z,53.91
2019-05-18T03:54:29.387Z,53.94
2019-05-18T03:56:56.906Z,53.90
2019-05-18T03:59:24.337Z,53.92
2019-05-18T04:01:51.770Z,53.87
2019-05-18T04:04:19.244Z,53.89
2019-05-18T04:06:46.697Z,53.90
2019-05-18T04:09:14.160Z,53.92
2019-05-18T04:11:41.607Z,53.88
2019-05-18T04:14:09.129Z,53.91
2019-05-18T04:16:36.909Z,53.95
2019-05-18T04:19:04.506Z,53.93
2019-05-18T04:21:31.964Z,53.92
2019-05-18T04:23:59.392Z,53.87
2019-05-18T04:26:26.861Z,53.91
2019-05-18T04:28:54.339Z,53.91
2019-05-18T04:31:21.818Z,53.90
2019-05-18T04:33:49.273Z,53.88
2019-05-18T04:36:16.760Z,53.91
2019-05-18T04:38:44.258Z,53.88
2019-05-18T04:41:11.769Z,53.89
2019-05-18T04:43:39.235Z,53.85
2019-05-18T04:46:06.685Z,53.85
2019-05-18T04:48:34.206Z,53.81
2019-05-18T04:51:01.651Z,53.85
2019-05-18T04:53:29.087Z,53.82
2019-05-18T04:55:59.537Z,53.82
2019-05-18T04:58:27.252Z,53.82
2019-05-18T05:00:54.727Z,53.81
2019-05-18T05:03:22.199Z,53.78
2019-05-18T05:05:49.680Z,53.80
2019-05-18T05:08:17.124Z,53.75
2019-05-18T05:10:44.597Z,53.72
2019-05-18T05:13:12.049Z,53.70
2019-05-18T05:15:39.506Z,53.68
2019-05-18T05:18:06.974Z,53.62
2019-05-18T05:20:34.452Z,53.60
2019-05-18T05:23:01.926Z,53.57
2019-05-18T05:25:29.373Z,53.53
2019-05-18T05:27:56.858Z,53.56
2019-05-18T05:30:24.328Z,53.48
2019-05-18T05:32:51.799Z,53.44
2019-05-18T05:35:19.252Z,53.43
2019-05-18T05:37:46.690Z,53.39
2019-05-18T05:40:14.174Z,53.37
2019-05-18T05:42:41.628Z,53.35
2019-05-18T05:45:09.210Z,53.30
2019-05-18T05:47:36.918Z,53.30
2019-05-18T05:50:05.288Z,53.22
2019-05-18T05:52:32.758Z,53.20
2019-05-18T05:55:00.520Z,53.16
2019-05-18T05:57:28.336Z,53.17
2019-05-18T05:59:56.187Z,53.11
2019-05-18T06:02:23.703Z,53.04
2019-05-18T06:04:51.149Z,52.94
2019-05-18T06:07:18.631Z,52.86
2019-05-18T06:09:46.099Z,52.76
2019-05-18T06:12:13.577Z,52.76
2019-05-18T06:14:41.045Z,52.73
2019-05-18T06:17:08.654Z,52.71
2019-05-18T06:19:36.175Z,52.65
2019-05-18T06:22:03.663Z,52.54
2019-05-18T06:24:31.097Z,52.54
2019-05-18T06:26:58.548Z,52.50
2019-05-18T06:29:26.038Z,52.50
2019-05-18T06:31:53.489Z,52.40
2019-05-18T06:34:20.958Z,52.41
2019-05-18T06:36:48.475Z,52.35
2019-05-18T06:39:16.019Z,52.31
2019-05-18T06:41:43.642Z,52.24
2019-05-18T06:44:11.415Z,52.21
2019-05-18T06:46:39.150Z,52.14
2019-05-18T06:49:06.596Z,52.11
2019-05-18T06:51:34.175Z,52.01
2019-05-18T06:54:01.624Z,51.96
2019-05-18T06:56:29.074Z,51.89
2019-05-18T06:58:56.553Z,51.87
2019-05-18T07:01:24.369Z,51.84
2019-05-18T07:03:51.837Z,51.78
2019-05-18T07:06:19.701Z,51.72
2019-05-18T07:08:47.474Z,51.67
2019-05-18T07:11:15.141Z,51.62
2019-05-18T07:13:43.011Z,51.60
2019-05-18T07:16:10.721Z,51.59
2019-05-18T07:18:38.557Z,51.58
2019-05-18T07:21:21.091Z,51.54
2019-05-18T07:23:35.970Z,51.52
2019-05-18T07:26:03.806Z,51.47
2019-05-18T07:28:31.576Z,51.44
2019-05-18T07:30:59.241Z,51.42
2019-05-18T07:33:26.697Z,51.37
2019-05-18T07:35:54.575Z,51.35
2019-05-18T07:38:22.020Z,51.30
2019-05-18T07:40:49.459Z,51.25
2019-05-18T07:43:16.946Z,51.20
2019-05-18T07:45:44.401Z,51.12
2019-05-18T07:48:11.916Z,51.09
2019-05-18T07:50:39.379Z,51.04
2019-05-18T07:53:06.814Z,50.99
2019-05-18T07:55:34.289Z,50.95
2019-05-18T07:58:01.810Z,50.89
2019-05-18T08:00:29.330Z,50.82
2019-05-18T08:02:56.778Z,50.77
2019-05-18T08:05:24.284Z,50.74
2019-05-18T08:07:51.738Z,50.72
2019-05-18T08:10:32.997Z,50.67
2019-05-18T08:13:00.463Z,50.60
2019-05-18T08:15:28.202Z,50.58
2019-05-18T08:17:55.976Z,50.53
2019-05-18T08:20:23.421Z,50.48
2019-05-18T08:22:51.019Z,50.44
2019-05-18T08:25:18.608Z,50.36
2019-05-18T08:27:46.056Z,50.30
2019-05-18T08:30:13.535Z,50.27
2019-05-18T08:32:41.160Z,50.19
2019-05-18T08:35:08.835Z,50.14
2019-05-18T08:37:36.985Z,50.09
2019-05-18T08:40:04.883Z,50.03
2019-05-18T08:42:32.858Z,49.97
2019-05-18T08:45:00.623Z,49.93
2019-05-18T08:47:28.073Z,49.89
2019-05-18T08:49:55.854Z,49.82
2019-05-18T08:52:23.328Z,49.79
2019-05-18T08:54:50.776Z,49.73
2019-05-18T08:57:18.548Z,49.68
2019-05-18T08:59:46.329Z,49.68
2019-05-18T09:02:13.986Z,49.65
2019-05-18T09:04:41.732Z,49.60
2019-05-18T09:07:09.383Z,49.55
2019-05-18T09:09:37.146Z,49.53
2019-05-18T09:12:04.862Z,49.44
2019-05-18T09:14:32.594Z,49.42
2019-05-18T09:17:00.047Z,49.38
2019-05-18T09:19:27.557Z,49.34
2019-05-18T09:21:55.015Z,49.29
2019-05-18T09:24:22.789Z,49.21
2019-05-18T09:26:50.235Z,49.19
2019-05-18T09:29:18.149Z,49.12
2019-05-18T09:31:46.061Z,49.05
2019-05-18T09:34:13.701Z,49.03
2019-05-18T09:36:41.536Z,49.01
2019-05-18T09:39:09.099Z,48.92
2019-05-18T09:41:36.557Z,48.83
2019-05-18T09:44:04.067Z,48.83
2019-05-18T09:46:31.537Z,48.79
2019-05-18T09:48:59.360Z,48.77
2019-05-18T09:51:26.966Z,48.74
2019-05-18T09:53:54.760Z,48.68
2019-05-18T09:56:22.185Z,48.66
2019-05-18T09:58:49.933Z,48.53
2019-05-18T10:01:17.509Z,48.47
2019-05-18T10:03:45.046Z,48.44
2019-05-18T10:06:12.926Z,48.34
2019-05-18T10:08:40.732Z,48.32
2019-05-18T10:11:08.237Z,48.26
2019-05-18T10:13:35.687Z,48.22
2019-05-18T10:16:03.155Z,48.18
2019-05-18T10:18:30.608Z,48.10
2019-05-18T10:20:58.523Z,48.07
2019-05-18T10:23:25.948Z,48.10
2019-05-18T10:25:53.393Z,48.06
2019-05-18T10:28:21.317Z,47.99
2019-05-18T10:30:48.789Z,47.91
2019-05-18T10:33:16.654Z,47.98
2019-05-18T10:35:44.457Z,47.94
2019-05-18T10:38:11.913Z,47.83
2019-05-18T10:40:39.658Z,47.83
2019-05-18T10:43:07.424Z,47.86
2019-05-18T10:45:34.840Z,47.85
2019-05-18T10:48:02.377Z,47.68
2019-05-18T10:50:29.971Z,47.56
2019-05-18T10:52:57.421Z,47.47
2019-05-18T10:55:24.943Z,47.42
2019-05-18T10:57:52.710Z,47.41
2019-05-18T11:00:20.264Z,47.36
2019-05-18T11:02:48.051Z,47.35
2019-05-18T11:05:15.684Z,47.34
2019-05-18T11:07:43.382Z,47.29
2019-05-18T11:10:11.102Z,47.27
2019-05-18T11:12:38.904Z,47.20
2019-05-18T11:15:08.377Z,47.22
2019-05-18T11:17:36.198Z,47.23
2019-05-18T11:20:04.090Z,47.19
2019-05-18T11:22:31.947Z,47.11
2019-05-18T11:24:59.737Z,46.98
2019-05-18T11:27:27.520Z,46.93
2019-05-18T11:29:55.343Z,46.87
2019-05-18T11:32:23.168Z,46.87
2019-05-18T11:34:50.902Z,46.83
2019-05-18T11:37:18.513Z,46.76
2019-05-18T11:39:46.367Z,46.78
2019-05-18T11:42:14.304Z,46.69
2019-05-18T11:44:42.311Z,46.73
2019-05-18T11:47:10.156Z,46.70
2019-05-18T11:49:37.939Z,46.69
2019-05-18T11:52:05.572Z,46.71
2019-05-18T11:54:33.236Z,46.68
2019-05-18T11:57:01.083Z,46.62
2019-05-18T11:59:29.082Z,46.59
2019-05-18T12:01:56.670Z,46.56
2019-05-18T12:04:24.440Z,46.67
2019-05-18T12:06:52.321Z,46.58
2019-05-18T12:09:20.241Z,46.50
2019-05-18T12:11:48.221Z,46.42
2019-05-18T12:14:16.028Z,46.39
2019-05-18T12:16:43.697Z,46.38
2019-05-18T12:19:11.571Z,46.32
2019-05-18T12:21:39.379Z,46.32
2019-05-18T12:24:15.424Z,46.29
2019-05-18T12:26:36.922Z,46.27
2019-05-18T12:29:04.690Z,46.28
2019-05-18T12:31:32.474Z,46.24
2019-05-18T12:34:00.174Z,46.28
2019-05-18T12:36:27.897Z,46.31
2019-05-18T12:38:55.566Z,46.34
2019-05-18T12:41:29.380Z,46.32
2019-05-18T12:43:57.141Z,46.30
2019-05-18T12:46:24.989Z,46.37
2019-05-18T12:48:52.717Z,46.25
2019-05-18T12:51:20.283Z,46.19
2019-05-18T12:53:47.988Z,46.09
2019-05-18T12:56:15.668Z,46.05
2019-05-18T12:58:43.557Z,46.02
2019-05-18T13:01:11.432Z,46.10
2019-05-18T13:03:39.193Z,46.21
2019-05-18T13:06:06.975Z,46.10
2019-05-18T13:08:34.635Z,46.06
2019-05-18T13:11:02.202Z,46.00
2019-05-18T13:13:29.911Z,46.00
2019-05-18T13:15:57.512Z,45.96
2019-05-18T13:18:25.260Z,45.99
2019-05-18T13:20:52.975Z,45.96
2019-05-18T13:23:20.740Z,45.95
2019-05-18T13:25:48.511Z,45.92
2019-05-18T13:28:16.286Z,45.92
2019-05-18T13:30:44.139Z,45.85
2019-05-18T13:33:11.864Z,45.91
2019-05-18T13:35:39.797Z,45.86
2019-05-18T13:38:07.566Z,45.86
2019-05-18T13:40:35.169Z,45.81
2019-05-18T13:43:03.089Z,45.80
2019-05-18T13:45:30.983Z,45.78
2019-05-18T13:47:58.850Z,45.80
2019-05-18T13:50:26.622Z,45.78
2019-05-18T13:52:54.579Z,45.74
2019-05-18T13:55:22.362Z,45.75
2019-05-18T13:57:50.242Z,45.74
2019-05-18T14:00:18.111Z,45.68
2019-05-18T14:02:45.837Z,45.66
2019-05-18T14:05:13.518Z,45.66
2019-05-18T14:07:41.110Z,45.59
2019-05-18T14:10:11.824Z,45.64
2019-05-18T14:12:39.517Z,45.63
2019-05-18T14:15:07.284Z,45.67
2019-05-18T14:17:35.165Z,45.40
2019-05-18T14:20:02.966Z,44.71
2019-05-18T14:22:30.635Z,43.54
2019-05-18T14:24:58.416Z,42.63
2019-05-18T14:27:26.029Z,42.02
2019-05-18T14:29:53.800Z,41.68
2019-05-18T14:32:21.640Z,41.40
2019-05-18T14:34:49.365Z,41.27
2019-05-18T14:37:17.071Z,41.12
2019-05-18T14:39:44.813Z,41.25
2019-05-18T14:42:12.651Z,42.08
2019-05-18T14:44:40.315Z,42.74
2019-05-18T14:47:08.081Z,42.46
2019-05-18T14:49:35.789Z,41.96
2019-05-18T14:52:03.482Z,41.43
2019-05-18T14:54:31.123Z,41.14
2019-05-18T14:56:58.857Z,40.95
2019-05-18T14:59:26.629Z,41.15
2019-05-18T15:01:54.395Z,41.51
2019-05-18T15:04:22.165Z,41.97
2019-05-18T15:06:49.832Z,42.27
2019-05-18T15:09:17.874Z,42.47
2019-05-18T15:11:45.677Z,42.62
2019-05-18T15:14:13.351Z,42.72
2019-05-18T15:16:41.012Z,42.71
2019-05-18T15:19:08.849Z,42.71
2019-05-18T15:21:36.553Z,42.65
2019-05-18T15:24:04.217Z,42.64
2019-05-18T15:26:32.089Z,42.63
2019-05-18T15:28:59.901Z,42.57
2019-05-18T15:31:27.731Z,42.47
2019-05-18T15:33:55.607Z,42.49
2019-05-18T15:36:23.377Z,42.47
2019-05-18T15:38:51.043Z,42.48
2019-05-18T15:41:18.611Z,42.56
2019-05-18T15:43:46.360Z,42.71
2019-05-18T15:46:13.973Z,42.83
2019-05-18T15:48:41.828Z,42.94
2019-05-18T15:51:09.584Z,42.93
2019-05-18T15:53:37.255Z,42.96
2019-05-18T15:56:06.403Z,42.99
2019-05-18T15:58:34.314Z,42.98
2019-05-18T16:01:02.017Z,43.03
2019-05-18T16:03:29.600Z,42.98
2019-05-18T16:05:57.422Z,42.95
2019-05-18T16:08:25.297Z,42.85
2019-05-18T16:10:53.075Z,42.82
2019-05-18T16:13:20.842Z,42.95
2019-05-18T16:15:48.594Z,43.06
2019-05-18T16:18:16.338Z,43.14
2019-05-18T16:20:44.366Z,43.20
2019-05-18T16:23:11.919Z,43.25
2019-05-18T16:25:39.485Z,43.35
2019-05-18T16:28:07.268Z,43.40
2019-05-18T16:30:34.934Z,43.49
2019-05-18T16:33:02.593Z,43.45
2019-05-18T16:35:30.156Z,43.46
2019-05-18T16:37:58.014Z,43.54
2019-05-18T16:40:25.520Z,43.55
2019-05-18T16:42:52.974Z,43.58
2019-05-18T16:45:20.544Z,43.56
2019-05-18T16:47:47.985Z,43.57
2019-05-18T16:50:15.411Z,43.55
2019-05-18T16:52:42.892Z,43.53
2019-05-18T16:55:10.374Z,43.52
2019-05-18T16:57:37.795Z,43.51
2019-05-18T17:00:05.370Z,43.49
2019-05-18T17:02:33.987Z,43.54
2019-05-18T17:05:01.854Z,43.54
2019-05-18T17:07:29.630Z,43.57
2019-05-18T17:09:57.500Z,43.55
2019-05-18T17:12:25.310Z,43.52
2019-05-18T17:14:53.243Z,43.49
2019-05-18T17:17:21.113Z,43.53
2019-05-18T17:19:48.778Z,43.45
2019-05-18T17:22:16.590Z,43.34
2019-05-18T17:24:44.182Z,43.21
2019-05-18T17:27:11.893Z,43.14
2019-05-18T17:29:39.557Z,43.03
2019-05-18T17:32:07.225Z,42.83
2019-05-18T17:34:34.767Z,42.80
2019-05-18T17:37:02.210Z,42.72
2019-05-18T17:39:29.753Z,42.77
2019-05-18T17:41:57.344Z,42.70
2019-05-18T17:44:24.801Z,42.63
2019-05-18T17:46:52.243Z,42.52
2019-05-18T17:49:26.965Z,42.54
2019-05-18T17:51:49.280Z,42.63
2019-05-18T17:54:16.992Z,42.65
2019-05-18T17:56:44.917Z,42.66
2019-05-18T17:59:12.687Z,42.63
2019-05-18T18:01:40.357Z,42.58
2019-05-18T18:04:08.128Z,42.54
2019-05-18T18:06:35.717Z,42.56
2019-05-18T18:09:04.581Z,42.60
2019-05-18T18:11:32.495Z,42.54
2019-05-18T18:14:00.332Z,42.53
2019-05-18T18:16:28.001Z,42.54
2019-05-18T18:18:55.766Z,42.57
2019-05-18T18:21:23.543Z,42.59
2019-05-18T18:23:54.634Z,42.58
2019-05-18T18:26:20.864Z,42.66
2019-05-18T18:28:48.621Z,42.77
2019-05-18T18:31:16.456Z,42.85
2019-05-18T18:33:44.024Z,42.93
2019-05-18T18:36:11.758Z,42.96
2019-05-18T18:38:39.819Z,43.04
2019-05-18T18:41:07.748Z,43.11
2019-05-18T18:43:35.510Z,43.22
2019-05-18T18:46:03.378Z,43.28
2019-05-18T18:48:31.207Z,43.37
2019-05-18T18:50:58.940Z,43.49
2019-05-18T18:53:26.486Z,43.61
2019-05-18T18:55:54.255Z,43.75
2019-05-18T18:58:22.124Z,43.90
2019-05-18T19:00:50.102Z,44.01
2019-05-18T19:03:17.871Z,44.10
2019-05-18T19:05:45.743Z,44.22
2019-05-18T19:08:13.412Z,44.31
2019-05-18T19:10:41.282Z,44.36
2019-05-18T19:13:09.055Z,44.43
2019-05-18T19:15:36.828Z,44.56
2019-05-18T19:18:04.594Z,44.60
2019-05-18T19:20:32.155Z,44.66
2019-05-18T19:23:00.134Z,44.74
2019-05-18T19:25:27.770Z,44.79
2019-05-18T19:27:55.613Z,44.84
2019-05-18T19:30:23.548Z,44.93
2019-05-18T19:32:51.314Z,45.00
2019-05-18T19:35:18.980Z,45.10
2019-05-18T19:37:46.724Z,45.22
2019-05-18T19:40:14.570Z,45.34
2019-05-18T19:42:42.500Z,45.49
2019-05-18T19:45:10.281Z,45.59
2019-05-18T19:47:38.143Z,45.59
2019-05-18T19:50:05.871Z,45.74
2019-05-18T19:52:33.665Z,46.01
2019-05-18T19:55:04.519Z,46.21
2019-05-18T19:57:32.121Z,46.32
2019-05-18T19:59:59.753Z,46.49
2019-05-18T20:02:27.364Z,46.64
2019-05-18T20:05:07.291Z,46.64
2019-05-18T20:07:24.493Z,46.69
2019-05-18T20:09:53.024Z,46.78
2019-05-18T20:12:20.958Z,46.83
2019-05-18T20:14:48.910Z,46.90
2019-05-18T20:17:17.205Z,47.00
2019-05-18T20:19:45.003Z,47.12
2019-05-18T20:22:12.840Z,47.24
2019-05-18T20:24:40.418Z,47.30
2019-05-18T20:27:08.184Z,47.42
2019-05-18T20:29:35.849Z,47.60
2019-05-18T20:32:03.824Z,47.78
2019-05-18T20:34:31.580Z,47.94
2019-05-18T20:36:59.408Z,48.04
2019-05-18T20:39:27.102Z,48.13
2019-05-18T20:41:54.908Z,48.34
2019-05-18T20:44:22.673Z,48.54
2019-05-18T20:46:50.381Z,48.64
2019-05-18T20:49:18.418Z,48.79
2019-05-18T20:51:45.982Z,48.93
2019-05-18T20:54:13.751Z,49.04
2019-05-18T20:56:41.386Z,49.11
2019-05-18T20:59:09.063Z,49.17
2019-05-18T21:01:36.858Z,49.25
2019-05-18T21:04:04.626Z,49.33
2019-05-18T21:06:32.498Z,49.38
2019-05-18T21:09:00.271Z,49.46
2019-05-18T21:11:27.943Z,49.50
2019-05-18T21:13:57.692Z,49.56
2019-05-18T21:16:25.213Z,49.60
2019-05-18T21:18:52.878Z,49.70
2019-05-18T21:21:25.127Z,49.74
2019-05-18T21:23:49.736Z,49.86
2019-05-18T21:26:17.449Z,49.93
2019-05-18T21:28:55.495Z,50.01
2019-05-18T21:31:14.593Z,50.08
2019-05-18T21:33:42.365Z,50.12
2019-05-18T21:36:10.442Z,50.21
2019-05-18T21:38:38.181Z,50.28
2019-05-18T21:41:05.918Z,50.31
2019-05-18T21:43:33.543Z,50.39
2019-05-18T21:46:01.210Z,50.47
2019-05-18T21:48:28.878Z,50.56
2019-05-18T21:50:56.609Z,50.59
2019-05-18T21:53:24.289Z,50.67
2019-05-18T21:55:52.069Z,50.75
2019-05-18T21:58:19.756Z,50.82
2019-05-18T22:00:47.831Z,50.87
2019-05-18T22:03:15.569Z,50.94
2019-05-18T22:05:43.313Z,51.04
2019-05-18T22:08:11.141Z,51.08
2019-05-18T22:10:38.909Z,51.17
2019-05-18T22:13:06.606Z,51.21
2019-05-18T22:15:34.344Z,51.27
2019-05-18T22:18:04.837Z,51.35
2019-05-18T22:20:33.695Z,51.41
2019-05-18T22:23:01.408Z,51.43
2019-05-18T22:25:28.840Z,51.52
2019-05-18T22:27:56.301Z,51.58
2019-05-18T22:30:23.727Z,51.64
2019-05-18T22:32:51.193Z,51.66
2019-05-18T22:35:18.628Z,51.72
2019-05-18T22:37:46.220Z,51.75
2019-05-18T22:40:13.722Z,51.83
2019-05-18T22:42:41.147Z,51.90
2019-05-18T22:45:08.585Z,51.94
2019-05-18T22:47:38.542Z,51.98
2019-05-18T22:50:06.120Z,52.03
2019-05-18T22:52:33.627Z,52.12
2019-05-18T22:55:01.084Z,52.17
2019-05-18T22:57:28.536Z,52.20
2019-05-18T22:59:55.999Z,52.26
2019-05-18T23:02:23.452Z,52.29
2019-05-18T23:04:50.935Z,52.36
2019-05-18T23:07:18.382Z,52.37
2019-05-18T23:09:45.887Z,52.44
2019-05-18T23:12:13.342Z,52.44
2019-05-18T23:14:40.838Z,52.52
2019-05-18T23:17:08.290Z,52.60
2019-05-18T23:19:35.750Z,52.62
2019-05-18T23:22:03.231Z,52.67
2019-05-18T23:24:30.669Z,52.75
2019-05-18T23:26:58.244Z,52.82
2019-05-18T23:29:25.668Z,52.87
2019-05-18T23:31:53.151Z,52.87
2019-05-18T23:34:20.623Z,52.91
2019-05-18T23:36:48.107Z,52.90
2019-05-18T23:39:15.552Z,52.95
2019-05-18T23:41:43.016Z,53.00
2019-05-18T23:44:10.467Z,53.00
2019-05-18T23:46:37.959Z,53.09
2019-05-18T23:49:10.916Z,53.13
2019-05-18T23:51:34.769Z,53.13
2019-05-18T23:54:02.327Z,53.16
2019-05-18T23:56:29.818Z,53.23
2019-05-18T23:58:57.262Z,53.24
